Terminal Aerodrome Forecast
Issued by NWS

Current Version | Previous Version | Graphics & Text | Print | Product List | Glossary On
Versions: 1 2 3 4 5 6 7 8 9 10 11 12 13 14
000
FTUS41 KPBZ 232130 AAB
TAFHLG
TAF AMD
KHLG 232130Z 2322/2418 24005KT 5SM SHRA BKN035
     FM240000 27010KT 3SM SHRA BR OVC025
     FM240400 26008KT P6SM VCSH OVC006
     FM241000 29008KT 3SM BR OVC004=

USA.gov is the U.S. government's official web portal to all federal, state and local government web resources and services.